createdAt,value
2022-11-19T00:01:29.811Z,54.42
2022-11-19T00:03:56.632Z,54.80
2022-11-19T00:06:26.299Z,60.90
2022-11-19T00:08:53.427Z,63.38
2022-11-19T00:11:46.344Z,60.75
2022-11-19T00:14:15.130Z,64.22
2022-11-19T00:16:43.948Z,62.95
2022-11-19T00:19:11.476Z,55.88
2022-11-19T00:21:38.438Z,58.92
2022-11-19T00:24:05.654Z,55.88
2022-11-19T00:26:32.401Z,60.58
2022-11-19T00:28:59.193Z,56.40
2022-11-19T00:31:26.057Z,58.25
2022-11-19T00:33:54.606Z,53.05
2022-11-19T00:36:22.563Z,59.63
2022-11-19T00:38:49.299Z,54.65
2022-11-19T00:41:16.071Z,53.67
2022-11-19T00:43:49.015Z,56.15
2022-11-19T00:46:20.274Z,60.08
2022-11-19T00:48:49.040Z,55.55
2022-11-19T00:51:17.142Z,52.60
2022-11-19T00:53:43.955Z,49.00
2022-11-19T00:56:13.530Z,48.33
2022-11-19T00:58:40.919Z,49.42
2022-11-19T01:01:09.129Z,57.17
2022-11-19T01:03:37.372Z,48.92
2022-11-19T01:06:04.777Z,50.92
2022-11-19T01:08:31.653Z,46.95
2022-11-19T01:11:26.523Z,47.00
2022-11-19T01:13:54.082Z,47.47
2022-11-19T01:16:27.404Z,50.88
2022-11-19T01:18:54.732Z,49.20
2022-11-19T01:21:23.701Z,44.78
2022-11-19T01:23:50.770Z,48.15
2022-11-19T01:26:18.194Z,43.75
2022-11-19T01:28:46.245Z,43.30
2022-11-19T01:31:17.227Z,46.60
2022-11-19T01:33:44.766Z,43.97
2022-11-19T01:36:22.997Z,46.60
2022-11-19T01:38:54.521Z,41.40
2022-11-19T01:41:30.069Z,41.63
2022-11-19T01:44:02.447Z,44.67
2022-11-19T01:46:32.614Z,47.70
2022-11-19T01:49:08.321Z,42.00
2022-11-19T01:51:53.622Z,42.33
2022-11-19T01:54:30.223Z,45.38
2022-11-19T01:57:01.758Z,44.15
2022-11-19T01:59:31.223Z,45.30
2022-11-19T02:01:58.259Z,46.22
2022-11-19T02:04:26.707Z,45.92
2022-11-19T02:06:54.966Z,42.88
2022-11-19T02:09:22.285Z,45.30
2022-11-19T02:12:02.881Z,40.85
2022-11-19T02:14:38.615Z,39.67
2022-11-19T02:17:11.250Z,44.65
2022-11-19T02:19:56.193Z,43.22
2022-11-19T02:23:13.658Z,41.53
2022-11-19T02:25:49.714Z,41.03
2022-11-19T02:28:51.796Z,41.03
2022-11-19T02:31:30.473Z,43.92
2022-11-19T02:34:14.357Z,44.15
2022-11-19T02:37:01.918Z,39.45
2022-11-19T02:39:43.683Z,85.45
2022-11-19T02:42:41.526Z,45.33
2022-11-19T02:45:17.751Z,40.55
2022-11-19T02:47:47.721Z,42.53
2022-11-19T02:50:33.277Z,40.22
2022-11-19T02:53:01.761Z,43.20
2022-11-19T02:55:28.570Z,45.75
2022-11-19T02:58:08.085Z,42.88
2022-11-19T03:01:03.881Z,43.05
2022-11-19T03:03:51.122Z,37.15
2022-11-19T03:06:24.422Z,42.00
2022-11-19T03:08:51.198Z,38.60
2022-11-19T03:11:28.207Z,39.15
2022-11-19T03:14:28.767Z,43.92
2022-11-19T03:17:03.959Z,38.47
2022-11-19T03:19:59.444Z,35.83
2022-11-19T03:22:37.863Z,36.25
2022-11-19T03:25:21.614Z,40.67
2022-11-19T03:27:52.602Z,41.03
2022-11-19T03:30:20.239Z,41.35
2022-11-19T03:33:30.121Z,39.63
2022-11-19T03:36:02.003Z,40.25
2022-11-19T03:41:03.265Z,34.58
2022-11-19T03:43:34.474Z,35.25
2022-11-19T03:46:02.731Z,40.38
2022-11-19T03:48:31.125Z,39.30
2022-11-19T03:51:13.400Z,35.45
2022-11-19T03:53:40.275Z,37.53
2022-11-19T03:56:13.766Z,41.00
2022-11-19T03:58:42.826Z,40.50
2022-11-19T04:01:10.601Z,48.00
2022-11-19T04:03:37.890Z,39.65
2022-11-19T04:06:05.959Z,38.45
2022-11-19T04:08:33.026Z,39.20
2022-11-19T04:13:26.041Z,52.50
2022-11-19T04:15:52.763Z,46.45
2022-11-19T04:18:19.743Z,40.28
2022-11-19T04:20:46.576Z,39.97
2022-11-19T04:23:13.313Z,48.28
2022-11-19T04:25:41.440Z,41.70
2022-11-19T04:28:08.169Z,43.03
2022-11-19T04:30:48.850Z,39.35
2022-11-19T04:33:15.584Z,41.47
2022-11-19T04:35:45.461Z,40.28
2022-11-19T04:38:12.234Z,42.05
2022-11-19T04:40:39.407Z,37.97
2022-11-19T04:43:06.177Z,41.47
2022-11-19T04:45:32.891Z,43.45
2022-11-19T04:47:59.654Z,47.45
2022-11-19T04:50:26.410Z,48.20
2022-11-19T04:52:53.159Z,45.83
2022-11-19T04:55:19.925Z,35.03
2022-11-19T04:57:46.660Z,41.50
2022-11-19T05:00:14.115Z,39.60
2022-11-19T05:02:40.867Z,42.72
2022-11-19T05:05:08.213Z,38.60
2022-11-19T05:07:34.986Z,44.53
2022-11-19T05:10:01.821Z,39.45
2022-11-19T05:12:28.577Z,44.00
2022-11-19T05:14:55.310Z,41.85
2022-11-19T05:17:22.088Z,44.47
2022-11-19T05:19:48.830Z,37.72
2022-11-19T05:22:15.735Z,37.65
2022-11-19T05:24:42.474Z,39.83
2022-11-19T05:27:09.226Z,41.53
2022-11-19T05:29:35.969Z,47.40
2022-11-19T05:32:02.750Z,43.95
2022-11-19T05:34:29.502Z,37.25
2022-11-19T05:36:56.242Z,40.53
2022-11-19T05:39:23.025Z,37.35
2022-11-19T05:41:50.483Z,44.17
2022-11-19T05:44:17.517Z,37.83
2022-11-19T05:46:44.268Z,39.20
2022-11-19T05:49:11.738Z,42.75
2022-11-19T05:51:39.291Z,39.05
2022-11-19T05:54:06.123Z,36.40
2022-11-19T05:56:33.232Z,36.95
2022-11-19T05:58:59.993Z,36.38
2022-11-19T06:01:28.698Z,35.40
2022-11-19T06:03:56.218Z,34.85
2022-11-19T06:06:23.678Z,33.88
2022-11-19T06:08:50.434Z,38.45
2022-11-19T06:11:36.249Z,43.67
2022-11-19T06:14:03.439Z,36.58
2022-11-19T06:16:30.421Z,38.13
2022-11-19T06:18:57.231Z,39.33
2022-11-19T06:21:23.981Z,38.05
2022-11-19T06:23:50.717Z,41.80
2022-11-19T06:26:25.174Z,37.67
2022-11-19T06:28:52.620Z,43.42
2022-11-19T06:31:19.661Z,38.33
2022-11-19T06:33:46.521Z,39.22
2022-11-19T06:36:13.565Z,42.03
2022-11-19T06:38:40.926Z,40.55
2022-11-19T06:41:07.983Z,41.33
2022-11-19T06:43:34.746Z,39.83
2022-11-19T06:46:01.557Z,179.93
2022-11-19T06:48:28.379Z,49.00
2022-11-19T06:50:55.250Z,54.72
2022-11-19T06:53:22.018Z,53.42
2022-11-19T06:55:48.755Z,57.08
2022-11-19T06:58:15.504Z,53.25
2022-11-19T07:00:42.387Z,53.30
2022-11-19T07:03:09.436Z,62.03
2022-11-19T07:05:36.210Z,76.30
2022-11-19T07:08:03.543Z,71.43
2022-11-19T07:10:31.760Z,69.47
2022-11-19T07:12:58.538Z,83.05
2022-11-19T07:15:25.466Z,97.38
2022-11-19T07:17:52.387Z,86.63
2022-11-19T07:20:19.199Z,84.65
2022-11-19T07:22:45.960Z,103.93
2022-11-19T07:25:13.303Z,100.85
2022-11-19T07:27:41.453Z,105.15
2022-11-19T07:30:09.147Z,109.97
2022-11-19T07:32:37.206Z,111.25
2022-11-19T07:35:04.151Z,128.90
2022-11-19T07:37:30.894Z,135.85
2022-11-19T07:39:57.653Z,120.65
2022-11-19T07:42:42.664Z,104.13
2022-11-19T07:45:09.923Z,115.20
2022-11-19T07:47:36.666Z,120.57
2022-11-19T07:50:04.336Z,120.43
2022-11-19T07:52:31.365Z,140.90
2022-11-19T07:54:58.139Z,135.73
2022-11-19T07:57:30.071Z,126.22
2022-11-19T07:59:57.511Z,135.85
2022-11-19T08:02:24.338Z,147.15
2022-11-19T08:04:51.105Z,165.75
2022-11-19T08:07:17.892Z,170.18
2022-11-19T08:09:44.635Z,151.85
2022-11-19T08:12:11.504Z,147.90
2022-11-19T08:14:43.423Z,169.77
2022-11-19T08:17:30.490Z,155.40
2022-11-19T08:19:57.222Z,143.98
2022-11-19T08:22:24.018Z,166.80
2022-11-19T08:24:50.750Z,210.18
2022-11-19T08:31:07.319Z,204.43
2022-11-19T08:33:34.683Z,212.25
2022-11-19T08:36:02.014Z,248.50
2022-11-19T08:38:28.857Z,177.15
2022-11-19T08:41:15.651Z,217.20
2022-11-19T08:43:42.541Z,151.07
2022-11-19T08:46:09.479Z,168.60
2022-11-19T08:48:36.378Z,174.18
2022-11-19T08:51:30.090Z,247.60
2022-11-19T08:53:56.916Z,185.38
2022-11-19T08:56:27.762Z,186.27
2022-11-19T08:58:59.859Z,151.63
2022-11-19T09:01:29.233Z,179.75
2022-11-19T09:03:56.119Z,185.30
2022-11-19T09:06:23.398Z,163.75
2022-11-19T09:08:50.190Z,171.10
2022-11-19T09:11:18.973Z,154.25
2022-11-19T09:13:45.942Z,160.65
2022-11-19T09:16:12.908Z,165.82
2022-11-19T09:18:41.992Z,173.95
2022-11-19T09:21:10.742Z,168.70
2022-11-19T09:23:37.732Z,170.50
2022-11-19T09:26:07.436Z,150.63
2022-11-19T09:28:34.691Z,143.68
2022-11-19T09:31:05.244Z,145.13
2022-11-19T09:33:33.473Z,139.15
2022-11-19T09:36:00.281Z,181.82
2022-11-19T09:38:27.714Z,160.95
2022-11-19T09:40:57.090Z,141.10
2022-11-19T09:43:46.564Z,147.57
2022-11-19T09:46:24.768Z,136.43
2022-11-19T09:48:55.553Z,127.40
2022-11-19T09:51:29.951Z,138.32
2022-11-19T09:54:16.949Z,132.52
2022-11-19T09:56:45.991Z,125.95
2022-11-19T09:59:30.551Z,105.10
2022-11-19T10:01:57.976Z,99.22
2022-11-19T10:04:28.138Z,103.32
2022-11-19T10:07:18.225Z,77.30
2022-11-19T10:10:12.646Z,94.05
2022-11-19T10:12:58.059Z,200.38
2022-11-19T10:15:37.889Z,77.63
2022-11-19T10:18:21.371Z,56.67
2022-11-19T10:21:09.393Z,68.70
2022-11-19T10:24:00.759Z,69.78
2022-11-19T10:26:36.894Z,53.95
2022-11-19T10:29:12.927Z,57.72
2022-11-19T10:31:45.489Z,51.10
2022-11-19T10:34:16.931Z,68.57
2022-11-19T10:37:08.623Z,63.45
2022-11-19T10:39:53.387Z,63.67
2022-11-19T10:42:37.089Z,68.55
2022-11-19T10:45:17.839Z,70.60
2022-11-19T10:48:08.894Z,71.18
2022-11-19T10:50:36.596Z,66.00
2022-11-19T10:53:16.359Z,76.30
2022-11-19T10:55:54.461Z,69.55
2022-11-19T10:58:36.873Z,57.83
2022-11-19T11:01:14.223Z,60.67
2022-11-19T11:03:52.037Z,51.42
2022-11-19T11:06:18.828Z,58.10
2022-11-19T11:08:55.800Z,54.67
2022-11-19T11:11:50.496Z,53.35
2022-11-19T11:14:42.758Z,47.75
2022-11-19T11:17:30.682Z,52.33
2022-11-19T11:20:20.799Z,45.35
2022-11-19T11:22:50.590Z,49.95
2022-11-19T11:25:28.810Z,75.75
2022-11-19T11:28:05.159Z,45.95
2022-11-19T11:30:32.031Z,45.10
2022-11-19T11:33:06.486Z,49.10
2022-11-19T11:35:38.569Z,45.47
2022-11-19T11:38:05.822Z,47.28
2022-11-19T11:40:32.647Z,58.30
2022-11-19T11:42:59.520Z,50.75
2022-11-19T11:45:32.992Z,43.13
2022-11-19T11:48:15.425Z,38.60
2022-11-19T11:50:45.953Z,48.08
2022-11-19T11:53:27.427Z,51.78
2022-11-19T11:56:02.572Z,51.97
2022-11-19T11:58:32.612Z,53.08
2022-11-19T12:01:20.639Z,53.15
2022-11-19T12:03:55.712Z,57.53
2022-11-19T12:06:31.651Z,45.25
2022-11-19T12:09:27.136Z,49.42
2022-11-19T12:12:12.424Z,47.38
2022-11-19T12:14:45.753Z,49.42
2022-11-19T12:17:48.987Z,51.42
2022-11-19T12:20:26.474Z,54.92
2022-11-19T12:23:27.175Z,54.10
2022-11-19T12:26:24.845Z,53.30
2022-11-19T12:29:16.385Z,53.17
2022-11-19T12:32:01.516Z,53.47
2022-11-19T12:34:34.083Z,55.35
2022-11-19T12:37:22.112Z,55.17
2022-11-19T12:40:22.463Z,53.00
2022-11-19T12:43:01.266Z,54.85
2022-11-19T12:46:01.430Z,43.25
2022-11-19T12:48:37.686Z,57.45
2022-11-19T12:51:16.365Z,79.47
2022-11-19T12:53:58.161Z,58.58
2022-11-19T12:56:30.056Z,61.72
2022-11-19T12:59:46.879Z,55.25
2022-11-19T13:02:42.995Z,62.65
2022-11-19T13:05:20.407Z,53.22
2022-11-19T13:07:53.865Z,56.78
2022-11-19T13:10:33.317Z,54.22
2022-11-19T13:13:01.202Z,66.25
2022-11-19T13:15:43.121Z,84.78
2022-11-19T13:20:50.449Z,58.30
2022-11-19T13:23:29.932Z,63.15
2022-11-19T13:26:03.074Z,52.42
2022-11-19T13:28:39.916Z,59.40
2022-11-19T13:31:14.187Z,64.63
2022-11-19T13:33:49.528Z,77.20
2022-11-19T13:36:25.506Z,47.85
2022-11-19T13:38:57.088Z,54.88
2022-11-19T13:41:33.286Z,55.40
2022-11-19T13:44:19.089Z,50.33
2022-11-19T13:46:59.351Z,57.70
2022-11-19T13:49:36.220Z,56.20
2022-11-19T13:52:26.058Z,57.85
2022-11-19T13:54:54.078Z,58.08
2022-11-19T13:57:35.058Z,60.45
2022-11-19T14:00:07.649Z,55.10
2022-11-19T14:02:55.303Z,62.15
2022-11-19T14:05:43.327Z,54.53
2022-11-19T14:08:39.536Z,56.72
2022-11-19T14:11:06.295Z,54.90
2022-11-19T14:14:01.130Z,62.67
2022-11-19T14:17:11.292Z,65.32
2022-11-19T14:20:08.191Z,68.38
2022-11-19T14:23:12.002Z,69.50
2022-11-19T14:26:02.513Z,59.78
2022-11-19T14:28:51.562Z,65.82
2022-11-19T14:31:20.041Z,67.15
2022-11-19T14:33:49.781Z,60.17
2022-11-19T14:36:38.400Z,64.45
2022-11-19T14:39:18.655Z,59.75
2022-11-19T14:41:46.245Z,61.55
2022-11-19T14:44:25.199Z,58.85
2022-11-19T14:46:52.110Z,66.20
2022-11-19T14:49:25.756Z,55.40
2022-11-19T14:51:57.424Z,64.13
2022-11-19T14:54:39.725Z,65.53
2022-11-19T14:57:23.819Z,73.18
2022-11-19T14:59:54.195Z,63.72
2022-11-19T15:02:26.210Z,68.55
2022-11-19T15:04:59.158Z,73.55
2022-11-19T15:07:55.843Z,66.10
2022-11-19T15:10:29.451Z,72.68
2022-11-19T15:13:17.432Z,79.90
2022-11-19T15:15:46.092Z,88.00
2022-11-19T15:18:27.991Z,72.20
2022-11-19T15:23:42.520Z,68.30
2022-11-19T15:26:28.374Z,60.20
2022-11-19T15:29:01.011Z,62.00
2022-11-19T15:31:42.296Z,67.20
2022-11-19T15:35:09.842Z,65.65
2022-11-19T15:38:03.946Z,55.78
2022-11-19T15:40:34.142Z,67.07
2022-11-19T15:43:03.994Z,67.88
2022-11-19T15:45:43.819Z,77.22
2022-11-19T15:48:25.533Z,68.43
2022-11-19T15:50:52.697Z,65.90
2022-11-19T15:53:57.496Z,66.95
2022-11-19T15:56:24.422Z,71.55
2022-11-19T15:58:52.495Z,70.05
2022-11-19T16:01:20.714Z,64.15
2022-11-19T16:03:47.856Z,58.92
2022-11-19T16:06:26.525Z,58.95
2022-11-19T16:08:54.928Z,103.32
2022-11-19T16:11:45.535Z,43.20
2022-11-19T16:14:44.869Z,49.65
2022-11-19T16:17:36.869Z,46.85
2022-11-19T16:20:21.956Z,36.25
2022-11-19T16:22:54.225Z,39.78
2022-11-19T16:25:36.559Z,40.45
2022-11-19T16:28:25.745Z,51.67
2022-11-19T16:30:55.062Z,39.50
2022-11-19T16:33:27.373Z,36.35
2022-11-19T16:36:15.126Z,34.70
2022-11-19T16:38:48.026Z,32.92
2022-11-19T16:41:37.028Z,31.98
2022-11-19T16:44:07.768Z,28.75
2022-11-19T16:46:35.247Z,29.83
2022-11-19T16:49:03.914Z,35.47
2022-11-19T16:51:32.168Z,33.10
2022-11-19T16:53:59.756Z,46.85
2022-11-19T16:56:32.197Z,30.80
2022-11-19T16:59:04.559Z,34.22
2022-11-19T17:01:32.356Z,32.50
2022-11-19T17:04:07.516Z,29.35
2022-11-19T17:06:37.321Z,21.98
2022-11-19T17:09:06.073Z,23.38
2022-11-19T17:11:57.060Z,22.40
2022-11-19T17:14:48.388Z,21.73
2022-11-19T17:17:32.337Z,22.15
2022-11-19T17:20:02.615Z,17.08
2022-11-19T17:22:40.083Z,18.95
2022-11-19T17:25:13.594Z,22.50
2022-11-19T17:27:40.431Z,16.08
2022-11-19T17:30:19.241Z,15.70
2022-11-19T17:32:57.585Z,16.67
2022-11-19T17:35:40.302Z,17.05
2022-11-19T17:38:24.925Z,15.13
2022-11-19T17:40:58.802Z,17.77
2022-11-19T17:43:56.314Z,21.35
2022-11-19T17:46:24.631Z,20.70
2022-11-19T17:48:53.035Z,21.55
2022-11-19T17:51:24.969Z,22.02
2022-11-19T17:53:52.758Z,19.60
2022-11-19T17:56:26.117Z,23.42
2022-11-19T17:58:53.021Z,22.85
2022-11-19T18:01:20.125Z,20.65
2022-11-19T18:03:47.468Z,18.30
2022-11-19T18:06:16.391Z,34.47
2022-11-19T18:08:44.207Z,32.38
2022-11-19T18:11:13.495Z,26.70
2022-11-19T18:13:41.456Z,50.50
2022-11-19T18:16:17.596Z,31.20
2022-11-19T18:18:44.528Z,32.28
2022-11-19T18:21:14.079Z,32.97
2022-11-19T18:23:42.148Z,28.10
2022-11-19T18:26:13.542Z,41.05
2022-11-19T18:28:43.827Z,36.35
2022-11-19T18:31:26.637Z,44.05
2022-11-19T18:33:55.339Z,36.50
2022-11-19T18:36:22.812Z,44.00
2022-11-19T18:38:49.781Z,47.05
2022-11-19T18:41:19.042Z,40.00
2022-11-19T18:44:04.350Z,46.60
2022-11-19T18:46:31.267Z,46.67
2022-11-19T18:48:58.110Z,47.15
2022-11-19T18:51:27.588Z,40.78
2022-11-19T18:53:54.348Z,38.05
2022-11-19T18:56:21.234Z,39.25
2022-11-19T18:58:48.027Z,37.97
2022-11-19T19:01:17.349Z,39.00
2022-11-19T19:03:44.744Z,36.53
2022-11-19T19:06:13.478Z,37.05
2022-11-19T19:08:40.619Z,40.33
2022-11-19T19:11:27.402Z,39.83
2022-11-19T19:13:54.357Z,38.33
2022-11-19T19:16:21.960Z,43.22
2022-11-19T19:18:48.906Z,40.40
2022-11-19T19:21:18.856Z,40.20
2022-11-19T19:23:46.141Z,33.35
2022-11-19T19:26:16.119Z,36.67
2022-11-19T19:28:43.741Z,39.47
2022-11-19T19:31:14.982Z,40.40
2022-11-19T19:33:46.334Z,39.65
2022-11-19T19:36:14.278Z,41.80
2022-11-19T19:38:41.371Z,38.80
2022-11-19T19:41:12.708Z,35.70
2022-11-19T19:43:39.668Z,32.42
2022-11-19T19:46:16.281Z,34.67
2022-11-19T19:48:44.306Z,40.20
2022-11-19T19:51:14.714Z,38.78
2022-11-19T19:53:44.610Z,37.92
2022-11-19T19:56:18.942Z,34.90
2022-11-19T19:58:47.327Z,35.42
2022-11-19T20:01:17.218Z,39.63
2022-11-19T20:03:44.757Z,42.00
2022-11-19T20:06:14.405Z,36.67
2022-11-19T20:08:42.462Z,38.28
2022-11-19T20:11:15.445Z,39.97
2022-11-19T20:13:43.149Z,35.40
2022-11-19T20:16:18.209Z,35.45
2022-11-19T20:18:46.883Z,38.83
2022-11-19T20:21:16.872Z,37.60
2022-11-19T20:23:44.115Z,36.78
2022-11-19T20:26:20.225Z,38.25
2022-11-19T20:28:47.894Z,36.10
2022-11-19T20:31:17.241Z,42.33
2022-11-19T20:33:45.170Z,42.22
2022-11-19T20:36:14.330Z,45.05
2022-11-19T20:38:43.169Z,40.00
2022-11-19T20:41:32.763Z,46.17
2022-11-19T20:44:18.866Z,44.90
2022-11-19T20:46:50.513Z,44.90
2022-11-19T20:49:18.591Z,48.50
2022-11-19T20:51:46.721Z,45.65
2022-11-19T20:54:13.733Z,49.38
2022-11-19T20:56:41.307Z,46.10
2022-11-19T20:59:09.348Z,51.10
2022-11-19T21:01:37.005Z,49.45
2022-11-19T21:04:04.270Z,49.25
2022-11-19T21:06:31.205Z,47.58
2022-11-19T21:08:58.183Z,49.83
2022-11-19T21:11:25.534Z,57.00
2022-11-19T21:13:52.700Z,56.25
2022-11-19T21:16:22.447Z,54.65
2022-11-19T21:18:49.531Z,74.05
2022-11-19T21:21:18.080Z,74.85
2022-11-19T21:23:45.353Z,70.90
2022-11-19T21:26:20.831Z,71.60
2022-11-19T21:28:52.988Z,73.63
2022-11-19T21:31:38.836Z,72.53
2022-11-19T21:34:11.022Z,85.97
2022-11-19T21:39:06.430Z,78.15
2022-11-19T21:41:33.786Z,91.22
2022-11-19T21:44:01.266Z,92.95
2022-11-19T21:46:28.121Z,83.90
2022-11-19T21:48:54.984Z,86.25
2022-11-19T21:51:24.990Z,82.28
2022-11-19T21:53:59.068Z,82.70
2022-11-19T21:56:27.322Z,86.55
2022-11-19T21:58:54.157Z,85.78
2022-11-19T22:01:21.290Z,83.22
2022-11-19T22:03:48.156Z,79.43
2022-11-19T22:06:15.012Z,74.68
2022-11-19T22:08:42.756Z,77.53
2022-11-19T22:11:29.346Z,87.57
2022-11-19T22:14:02.383Z,76.97
2022-11-19T22:16:30.400Z,74.97
2022-11-19T22:18:57.261Z,77.43
2022-11-19T22:21:25.179Z,77.07
2022-11-19T22:23:52.881Z,72.95
2022-11-19T22:26:19.762Z,80.45
2022-11-19T22:28:46.577Z,73.78
2022-11-19T22:31:14.350Z,76.40
2022-11-19T22:33:41.644Z,73.95
2022-11-19T22:36:10.735Z,73.55
2022-11-19T22:38:38.632Z,77.20
2022-11-19T22:41:08.557Z,77.22
2022-11-19T22:43:36.666Z,71.13
2022-11-19T22:46:04.115Z,74.60
2022-11-19T22:48:32.682Z,71.72
2022-11-19T22:51:04.508Z,79.32
2022-11-19T22:56:02.132Z,79.50
2022-11-19T22:58:29.609Z,74.43
2022-11-19T23:00:56.465Z,73.28
2022-11-19T23:03:23.500Z,73.78
2022-11-19T23:05:51.675Z,74.55
2022-11-19T23:08:18.921Z,69.43
2022-11-19T23:10:46.166Z,76.88
2022-11-19T23:13:34.288Z,79.72
2022-11-19T23:16:12.096Z,72.80
2022-11-19T23:18:50.587Z,71.88
2022-11-19T23:21:18.498Z,72.53
2022-11-19T23:23:45.332Z,74.75
2022-11-19T23:26:14.757Z,73.78
2022-11-19T23:28:41.957Z,80.80
2022-11-19T23:31:13.938Z,70.95
2022-11-19T23:33:41.238Z,73.43
2022-11-19T23:36:16.939Z,72.57
2022-11-19T23:38:44.330Z,66.47
2022-11-19T23:41:13.244Z,73.63
2022-11-19T23:43:40.913Z,71.63
2022-11-19T23:46:19.397Z,70.95
2022-11-19T23:48:48.195Z,70.45
2022-11-19T23:51:20.416Z,69.18
2022-11-19T23:53:48.186Z,70.85
2022-11-19T23:56:16.378Z,70.10
2022-11-19T23:58:43.346Z,72.75
